Bardonia, New York
Current Conditions -  °F | °C
As of 11:56 AM on Friday 28 Nov 2014 (Local Time) from KHPN Reporting Station
Scattered Clouds Scattered Clouds  
Wind Chill: 24°   Ceiling: Unl
Heat Index: 34°   Visibility: 10mi
Dew Point: 21°   Wind: 15mph
Humidity: 59%   Direction: 320°NW
Pressure: 30.12"   Gusts: 23mph
Location:  41.0984°N, 74.0095°W
Report Text: KHPN 281656Z 32013G20KT 10SM SCT035 01/M06 A3012 RMK AO2 PK WND 31028/1621 SLP206 T00111061
Loading
Personal Weather Stations






























Interactive Weather Map New forecast layout! Learn more

10-Day Weather Forecast

Advertisements
Track Severe Weather on mobile